Terminal Aerodrome Forecast
Issued by NWS Wilmington, NC

Home | Current Version | Previous Version | Text Only | Print | Product List | Glossary On
Versions: 1 2 3 4 5 6 7 8 9 10 11 12 13
000
FTUS42 KILM 252320
TAFFLO
TAF
KFLO 252320Z 2600/2624 14006KT P6SM SKC
     FM260200 00000KT P6SM SKC
     FM261000 29001KT 5SM BR SKC
     FM261100 26002KT 4SM BR SKC
     FM261230 VRB03KT P6SM BKN250=

USA.gov is the U.S. government's official web portal to all federal, state and local government web resources and services.